Time;durP1;ratioP1;P1;durP2;ratioP2;P2;SDS_P1;SDS_P2;PMS_P1;PMS_P2;Temp;Humidity;BMP_temperature;BMP_pressure;BME280_temperature;BME280_humidity;BME280_pressure;Samples;Min_cycle;Max_cycle;Signal;HPM_P1;HPM_P2
2022/07/13 00:00:55;;;;;;;2.73;2.53;;;22.20;99.90;;;;;;4877519;29;20259;-60
2022/07/13 00:03:23;;;;;;;4.20;2.70;;;22.20;99.90;;;;;;4875904;29;20207;-60
2022/07/13 00:05:52;;;;;;;2.80;2.60;;;22.20;99.90;;;;;;4876212;29;20202;-60
2022/07/13 00:08:22;;;;;;;2.60;2.40;;;22.10;99.90;;;;;;4876132;29;20242;-60
2022/07/13 00:10:51;;;;;;;7.13;2.20;;;22.10;99.90;;;;;;4877538;29;20218;-60
2022/07/13 00:13:19;;;;;;;2.53;2.40;;;22.10;99.90;;;;;;4877313;29;20219;-60
2022/07/13 00:15:48;;;;;;;2.80;2.50;;;22.10;99.90;;;;;;4877342;29;20906;-60
2022/07/13 00:18:16;;;;;;;2.67;2.57;;;22.20;99.90;;;;;;4877464;29;20202;-60
2022/07/13 00:20:45;;;;;;;4.40;2.40;;;22.20;99.90;;;;;;4876082;29;20198;-60
2022/07/13 00:23:14;;;;;;;2.20;2.10;;;22.10;99.90;;;;;;4877275;29;20235;-60
2022/07/13 00:25:44;;;;;;;2.60;2.20;;;22.10;99.90;;;;;;4877362;29;20207;-60
2022/07/13 00:28:12;;;;;;;2.50;2.30;;;22.10;99.90;;;;;;4879881;29;20638;-60
2022/07/13 00:30:41;;;;;;;2.30;2.13;;;22.20;99.90;;;;;;4880595;29;20286;-60
2022/07/13 00:33:09;;;;;;;2.47;2.23;;;22.20;99.90;;;;;;4879163;29;20218;-60
2022/07/13 00:35:38;;;;;;;2.27;2.10;;;22.30;99.90;;;;;;4880110;29;20616;-60
2022/07/13 00:38:07;;;;;;;2.47;2.27;;;22.30;99.90;;;;;;4880495;29;20744;-60
2022/07/13 00:40:35;;;;;;;2.23;2.03;;;22.40;99.90;;;;;;4879884;29;20255;-60
2022/07/13 00:43:05;;;;;;;3.63;2.10;;;22.50;99.90;;;;;;4879979;29;20202;-60
2022/07/13 00:45:34;;;;;;;2.10;2.00;;;22.60;99.90;;;;;;4878795;29;20214;-60
2022/07/13 00:48:03;;;;;;;3.07;2.20;;;22.60;99.90;;;;;;4880307;29;20231;-60
2022/07/13 00:50:32;;;;;;;2.23;2.13;;;22.60;99.90;;;;;;4880302;29;20209;-60
2022/07/13 00:53:01;;;;;;;4.53;2.20;;;22.60;99.90;;;;;;4882360;29;20313;-60
2022/07/13 00:55:30;;;;;;;2.30;2.20;;;22.60;99.90;;;;;;4880251;29;20264;-60
2022/07/13 00:57:59;;;;;;;2.70;1.97;;;22.60;99.90;;;;;;4880392;29;20210;-60
2022/07/13 01:00:29;;;;;;;2.77;2.20;;;22.60;99.90;;;;;;4879915;29;20230;-60
2022/07/13 01:02:57;;;;;;;2.93;2.10;;;22.70;99.90;;;;;;4879392;29;20203;-60
2022/07/13 01:05:26;;;;;;;2.23;2.10;;;22.70;99.90;;;;;;4880005;29;20207;-60
2022/07/13 01:07:55;;;;;;;4.00;2.10;;;22.70;99.90;;;;;;4879884;29;20227;-60
2022/07/13 01:10:24;;;;;;;2.00;1.90;;;22.70;99.90;;;;;;4878757;29;20202;-60
2022/07/13 01:12:53;;;;;;;2.40;2.27;;;22.70;99.90;;;;;;4878792;29;20231;-60
2022/07/13 01:15:23;;;;;;;3.63;2.20;;;22.70;99.90;;;;;;4879821;29;20293;-60
2022/07/13 01:17:54;;;;;;;2.03;1.93;;;22.70;99.90;;;;;;4880034;29;20211;-60
2022/07/13 01:20:23;;;;;;;2.87;2.07;;;22.70;99.90;;;;;;4879732;29;20227;-60
2022/07/13 01:22:53;;;;;;;2.60;2.50;;;22.70;99.90;;;;;;4879743;29;20934;-60
2022/07/13 01:25:26;;;;;;;2.20;2.10;;;22.70;99.90;;;;;;4879610;29;20270;-60
2022/07/13 01:27:54;;;;;;;2.43;2.33;;;22.60;99.90;;;;;;4880029;29;20591;-60
2022/07/13 01:30:23;;;;;;;2.00;1.90;;;22.60;99.90;;;;;;4879821;29;20643;-60
2022/07/13 01:32:52;;;;;;;2.10;2.00;;;22.60;99.90;;;;;;4878556;29;20222;-60
2022/07/13 01:35:22;;;;;;;2.40;2.20;;;22.70;99.90;;;;;;4879512;29;20647;-60
2022/07/13 01:37:52;;;;;;;2.20;2.10;;;22.70;99.90;;;;;;4878047;29;20211;-60
2022/07/13 01:40:20;;;;;;;2.40;2.20;;;22.70;99.90;;;;;;4878789;29;20202;-60
2022/07/13 01:42:52;;;;;;;2.33;2.00;;;22.70;99.90;;;;;;4879597;29;20203;-60
2022/07/13 01:45:23;;;;;;;1.87;1.87;;;22.70;99.90;;;;;;4879342;29;20205;-60
2022/07/13 01:47:53;;;;;;;2.27;2.07;;;22.80;99.90;;;;;;4879414;29;20202;-60
2022/07/13 01:50:23;;;;;;;4.50;2.23;;;22.90;99.90;;;;;;4879292;29;20622;-60
2022/07/13 01:52:52;;;;;;;4.00;1.90;;;22.90;99.90;;;;;;4882820;29;20226;-60
2022/07/13 01:55:21;;;;;;;2.73;2.10;;;22.90;99.90;;;;;;4879258;29;20199;-60
2022/07/13 01:57:57;;;;;;;2.50;1.90;;;22.90;99.90;;;;;;4879003;29;20283;-60
2022/07/13 02:00:25;;;;;;;2.80;2.20;;;23.00;99.90;;;;;;4879333;29;20242;-60
2022/07/13 02:02:54;;;;;;;2.33;2.13;;;23.00;99.90;;;;;;4866674;29;20203;-60
2022/07/13 02:05:26;;;;;;;2.17;1.80;;;23.00;99.90;;;;;;4878926;29;20294;-60
2022/07/13 02:07:55;;;;;;;3.10;2.23;;;23.00;99.90;;;;;;4877732;29;20233;-60
2022/07/13 02:10:34;;;;;;;2.73;2.20;;;23.00;99.90;;;;;;4877725;29;20357;-60
2022/07/13 02:13:06;;;;;;;3.87;2.07;;;23.00;99.90;;;;;;4878910;29;20222;-60
2022/07/13 02:15:36;;;;;;;3.30;2.00;;;23.00;99.90;;;;;;4879148;29;20513;-60
2022/07/13 02:18:06;;;;;;;2.23;2.07;;;23.00;99.90;;;;;;4877709;29;20283;-60
2022/07/13 02:20:35;;;;;;;2.30;2.10;;;23.10;99.90;;;;;;4877500;29;20625;-60
2022/07/13 02:23:04;;;;;;;6.47;2.20;;;23.00;99.90;;;;;;4878894;29;20599;-60
2022/07/13 02:25:33;;;;;;;2.43;2.23;;;23.00;99.90;;;;;;4878798;29;20207;-60
2022/07/13 02:28:02;;;;;;;2.30;2.20;;;22.90;99.90;;;;;;4878675;29;20199;-60
2022/07/13 02:30:32;;;;;;;2.47;2.00;;;22.90;99.90;;;;;;4878615;29;20214;-60
2022/07/13 02:33:00;;;;;;;2.30;2.07;;;22.90;99.90;;;;;;4878453;29;20254;-60
2022/07/13 02:35:29;;;;;;;2.10;2.00;;;22.90;99.90;;;;;;4878459;29;20225;-60
2022/07/13 02:37:58;;;;;;;2.00;1.90;;;22.90;99.90;;;;;;4878609;29;20635;-60
2022/07/13 02:40:26;;;;;;;3.50;2.30;;;22.90;99.90;;;;;;4878389;29;20209;-60
2022/07/13 02:42:54;;;;;;;4.00;2.40;;;23.00;99.90;;;;;;4878764;29;20658;-60
2022/07/13 02:45:23;;;;;;;2.67;2.30;;;22.90;99.90;;;;;;4878269;29;20211;-60
2022/07/13 02:47:53;;;;;;;2.80;2.23;;;22.90;99.90;;;;;;4877197;29;20297;-60
2022/07/13 02:50:22;;;;;;;2.47;2.10;;;22.90;99.90;;;;;;4877981;29;20215;-60
2022/07/13 02:52:52;;;;;;;3.57;2.10;;;22.90;99.90;;;;;;4881547;29;20210;-60
2022/07/13 02:55:21;;;;;;;2.20;2.13;;;22.80;99.90;;;;;;4877112;29;20248;-60
2022/07/13 02:57:50;;;;;;;2.80;2.03;;;22.90;99.90;;;;;;4878144;29;20203;-60
2022/07/13 03:00:18;;;;;;;4.53;2.43;;;22.80;99.90;;;;;;4878250;29;20211;-60
2022/07/13 03:02:47;;;;;;;4.83;2.40;;;22.80;99.90;;;;;;4878318;29;20214;-60
2022/07/13 03:05:17;;;;;;;4.30;2.30;;;22.80;99.90;;;;;;4878039;29;20300;-60
2022/07/13 03:07:45;;;;;;;2.00;1.90;;;22.80;99.90;;;;;;4878058;29;20199;-60
2022/07/13 03:10:14;;;;;;;3.27;2.37;;;22.70;99.90;;;;;;4878011;29;20195;-60
2022/07/13 03:12:42;;;;;;;2.17;2.10;;;22.70;99.90;;;;;;4876729;29;20249;-60
2022/07/13 03:15:12;;;;;;;3.67;2.20;;;22.70;99.90;;;;;;4877864;29;20226;-60
2022/07/13 03:17:42;;;;;;;2.40;2.30;;;22.80;99.90;;;;;;4878137;29;20548;-60
2022/07/13 03:20:11;;;;;;;4.40;2.13;;;22.70;99.90;;;;;;4878112;29;20203;-60
2022/07/13 03:22:41;;;;;;;2.87;2.13;;;22.70;99.90;;;;;;4877996;29;20230;-60
2022/07/13 03:25:11;;;;;;;3.30;2.33;;;22.70;99.90;;;;;;4876405;29;20285;-60
2022/07/13 03:27:47;;;;;;;2.17;2.03;;;22.70;99.90;;;;;;4876684;29;20270;-60
2022/07/13 03:30:16;;;;;;;3.73;2.30;;;22.60;99.90;;;;;;4876499;29;20286;-60
2022/07/13 03:32:44;;;;;;;3.13;2.53;;;22.60;99.90;;;;;;4876649;29;20203;-60
2022/07/13 03:35:14;;;;;;;2.37;2.17;;;22.60;99.90;;;;;;4877668;29;20293;-60
2022/07/13 03:37:44;;;;;;;3.70;2.37;;;22.60;99.90;;;;;;4877786;29;20285;-60
2022/07/13 03:40:14;;;;;;;3.07;2.40;;;22.60;99.90;;;;;;4877675;29;20218;-60
2022/07/13 03:42:42;;;;;;;2.63;2.30;;;22.50;99.90;;;;;;4877888;29;20226;-60
2022/07/13 03:45:10;;;;;;;5.10;2.50;;;22.50;99.90;;;;;;4877565;29;20207;-60
2022/07/13 03:47:39;;;;;;;3.03;2.20;;;22.50;99.90;;;;;;4877971;29;20278;-60
2022/07/13 03:50:07;;;;;;;2.70;2.40;;;22.40;99.90;;;;;;4877441;29;20290;-60
2022/07/13 03:52:45;;;;;;;2.80;2.30;;;22.40;99.90;;;;;;4876180;29;20200;-60
2022/07/13 03:55:14;;;;;;;8.30;2.70;;;22.40;99.90;;;;;;4877504;29;20250;-60
2022/07/13 03:57:43;;;;;;;2.63;2.10;;;22.40;99.90;;;;;;4877570;29;20202;-60
2022/07/13 04:00:12;;;;;;;2.30;2.20;;;22.40;99.90;;;;;;4877429;29;20214;-60
2022/07/13 04:02:40;;;;;;;3.40;2.60;;;22.40;99.90;;;;;;4876636;29;20523;-60
2022/07/13 04:05:09;;;;;;;2.43;2.23;;;22.40;99.90;;;;;;4878966;29;20187;-60
2022/07/13 04:07:41;;;;;;;2.40;2.30;;;22.40;99.90;;;;;;4880271;29;20203;-60
2022/07/13 04:10:11;;;;;;;2.57;2.20;;;22.50;99.90;;;;;;4880323;29;20233;-60
2022/07/13 04:12:42;;;;;;;3.97;2.57;;;22.40;99.90;;;;;;4879833;29;20290;-60
2022/07/13 04:15:11;;;;;;;2.43;2.23;;;22.40;99.90;;;;;;4878689;29;20226;-60
2022/07/13 04:17:41;;;;;;;4.00;2.57;;;22.40;99.90;;;;;;4881692;29;20187;-60
2022/07/13 04:20:11;;;;;;;2.90;2.07;;;22.40;99.90;;;;;;4881004;29;20199;-60
2022/07/13 04:22:39;;;;;;;4.00;2.30;;;22.40;99.90;;;;;;4879579;29;20323;-60
2022/07/13 04:25:08;;;;;;;2.57;2.20;;;22.40;99.90;;;;;;4880929;29;20209;-60
2022/07/13 04:27:37;;;;;;;3.23;2.30;;;22.50;99.90;;;;;;4879615;29;20289;-60
2022/07/13 04:30:07;;;;;;;2.33;2.10;;;22.50;99.90;;;;;;4880822;29;20207;-60
2022/07/13 04:32:35;;;;;;;3.63;2.30;;;22.50;99.90;;;;;;4879073;29;20195;-60
2022/07/13 04:35:04;;;;;;;3.90;2.37;;;22.50;99.90;;;;;;4878914;29;20214;-60
2022/07/13 04:37:33;;;;;;;3.37;2.13;;;22.50;99.90;;;;;;4878493;29;20214;-60
2022/07/13 04:40:01;;;;;;;3.87;2.17;;;22.50;99.90;;;;;;4880086;29;20203;-60
2022/07/13 04:42:33;;;;;;;8.63;2.10;;;22.50;99.90;;;;;;4880006;29;20257;-60
2022/07/13 04:45:03;;;;;;;5.00;2.33;;;22.50;99.90;;;;;;4880541;29;20207;-60
2022/07/13 04:47:31;;;;;;;2.50;2.30;;;22.50;99.90;;;;;;4880859;29;20206;-60
2022/07/13 04:50:00;;;;;;;4.60;2.37;;;22.50;99.90;;;;;;4880525;29;20211;-60
2022/07/13 04:52:29;;;;;;;4.10;2.67;;;22.50;99.90;;;;;;4881760;29;20670;-60
2022/07/13 04:54:57;;;;;;;5.43;2.20;;;22.50;99.90;;;;;;4880284;29;20226;-60
2022/07/13 04:57:26;;;;;;;2.60;2.30;;;22.50;99.90;;;;;;4864003;29;20238;-60
2022/07/13 04:59:54;;;;;;;2.93;2.50;;;22.50;99.90;;;;;;4880166;29;20282;-60
2022/07/13 05:02:24;;;;;;;4.30;2.40;;;22.50;99.90;;;;;;4880534;29;20234;-60
2022/07/13 05:04:52;;;;;;;3.83;2.47;;;22.40;99.90;;;;;;4879053;29;20293;-60
2022/07/13 05:07:21;;;;;;;2.63;2.37;;;22.40;99.90;;;;;;4879019;29;20290;-60
2022/07/13 05:09:49;;;;;;;2.20;2.17;;;22.40;99.90;;;;;;4880258;29;20301;-60
2022/07/13 05:12:18;;;;;;;4.10;2.30;;;22.40;99.90;;;;;;4878823;29;20198;-60
2022/07/13 05:14:46;;;;;;;2.50;2.40;;;22.40;99.90;;;;;;4879983;29;20970;-60
2022/07/13 05:17:16;;;;;;;2.43;2.23;;;22.40;99.90;;;;;;4880045;29;20713;-60
2022/07/13 05:19:45;;;;;;;4.97;2.10;;;22.40;99.90;;;;;;4879798;29;20221;-60
2022/07/13 05:22:15;;;;;;;2.87;2.27;;;22.30;99.90;;;;;;4880206;29;20247;-60
2022/07/13 05:24:46;;;;;;;7.97;2.77;;;22.30;99.90;;;;;;4878657;29;20195;-60
2022/07/13 05:27:15;;;;;;;5.50;2.30;;;22.30;99.90;;;;;;4880102;29;20407;-60
2022/07/13 05:29:46;;;;;;;2.50;2.07;;;22.30;99.90;;;;;;4879872;29;20210;-60
2022/07/13 05:32:14;;;;;;;2.70;2.50;;;22.30;99.90;;;;;;4878449;29;20214;-60
2022/07/13 05:34:43;;;;;;;2.77;2.23;;;22.30;99.90;;;;;;4879873;29;20223;-60
2022/07/13 05:37:14;;;;;;;5.40;2.50;;;22.30;99.90;;;;;;4879761;29;20210;-61
2022/07/13 05:39:44;;;;;;;3.77;2.07;;;22.30;99.90;;;;;;4879666;29;20238;-60
2022/07/13 05:42:13;;;;;;;4.83;2.90;;;22.30;99.90;;;;;;4879661;29;20282;-60
2022/07/13 05:44:42;;;;;;;6.57;2.70;;;22.40;99.90;;;;;;4879551;29;20199;-60
2022/07/13 05:47:11;;;;;;;5.47;2.73;;;22.50;99.90;;;;;;4878326;29;20202;-60
2022/07/13 05:49:39;;;;;;;2.53;2.17;;;22.50;99.90;;;;;;4878171;29;20210;-60
2022/07/13 05:52:08;;;;;;;4.40;2.60;;;22.60;99.90;;;;;;4877993;29;20195;-60
2022/07/13 05:54:39;;;;;;;7.47;2.63;;;22.70;99.90;;;;;;4879137;29;20647;-60
2022/07/13 05:57:11;;;;;;;4.47;2.60;;;22.70;99.90;;;;;;4879270;29;20210;-60
2022/07/13 05:59:40;;;;;;;3.57;2.80;;;22.80;99.90;;;;;;4879171;29;20187;-60
2022/07/13 06:02:08;;;;;;;3.70;2.67;;;22.90;99.90;;;;;;4879145;29;20723;-60
2022/07/13 06:04:36;;;;;;;11.00;2.83;;;23.00;99.90;;;;;;4877464;29;20749;-60
2022/07/13 06:07:05;;;;;;;5.00;2.70;;;23.10;99.90;;;;;;4877819;29;20198;-60
2022/07/13 06:09:33;;;;;;;6.63;2.87;;;23.20;99.90;;;;;;4878916;29;20652;-61
2022/07/13 06:12:04;;;;;;;9.00;3.33;;;23.20;99.90;;;;;;4879099;29;20242;-60
2022/07/13 06:14:32;;;;;;;6.93;2.97;;;23.30;99.90;;;;;;4866101;29;20687;-60
2022/07/13 06:17:01;;;;;;;3.57;2.63;;;23.30;99.90;;;;;;4877647;29;20253;-60
2022/07/13 06:19:29;;;;;;;5.17;3.43;;;23.30;99.90;;;;;;4878651;29;20199;-60
2022/07/13 06:21:58;;;;;;;4.47;3.37;;;23.30;99.90;;;;;;4878442;29;20329;-60
2022/07/13 06:24:26;;;;;;;6.93;3.07;;;23.40;99.90;;;;;;4878727;29;20207;-60
2022/07/13 06:26:55;;;;;;;6.23;3.30;;;23.40;99.90;;;;;;4879116;29;20203;-60
2022/07/13 06:29:24;;;;;;;6.50;3.37;;;23.50;99.90;;;;;;4878872;29;20225;-60
2022/07/13 06:31:53;;;;;;;4.40;3.60;;;23.50;99.90;;;;;;4878611;29;20217;-60
2022/07/13 06:34:21;;;;;;;4.60;3.27;;;23.50;99.90;;;;;;4878835;29;20286;-60
2022/07/13 06:36:49;;;;;;;9.57;3.40;;;23.70;99.90;;;;;;4878358;29;20215;-60
2022/07/13 06:39:18;;;;;;;6.67;3.60;;;23.80;99.90;;;;;;4877283;29;20216;-61
2022/07/13 06:41:46;;;;;;;7.77;3.47;;;23.90;99.90;;;;;;4878424;29;20283;-60
2022/07/13 06:44:15;;;;;;;11.73;3.60;;;24.00;99.90;;;;;;4877080;29;20262;-60
2022/07/13 06:46:45;;;;;;;4.33;3.67;;;24.10;99.90;;;;;;4877078;29;20203;-60
2022/07/13 06:49:14;;;;;;;8.87;3.93;;;24.10;99.90;;;;;;4877172;29;20208;-60
2022/07/13 06:51:42;;;;;;;7.20;3.60;;;24.10;99.90;;;;;;4878075;29;20228;-62
2022/07/13 06:54:11;;;;;;;7.07;4.03;;;24.20;99.90;;;;;;4881999;29;20205;-65
2022/07/13 06:56:39;;;;;;;6.77;3.40;;;24.20;99.90;;;;;;4877598;29;20245;-61
2022/07/13 06:59:08;;;;;;;7.30;4.17;;;24.30;99.90;;;;;;4878241;29;20220;-61
2022/07/13 07:01:37;;;;;;;8.50;3.97;;;24.30;99.90;;;;;;4878433;29;20780;-61
2022/07/13 07:04:07;;;;;;;10.73;4.43;;;24.30;99.90;;;;;;4878167;29;20200;-61
2022/07/13 07:06:35;;;;;;;10.60;4.30;;;24.40;99.90;;;;;;4877872;29;20203;-61
2022/07/13 07:09:04;;;;;;;9.80;4.37;;;24.50;99.90;;;;;;4878471;29;20236;-61
2022/07/13 07:11:32;;;;;;;7.17;3.90;;;24.60;99.90;;;;;;4877995;29;20740;-61
2022/07/13 07:14:00;;;;;;;10.30;4.37;;;24.90;99.90;;;;;;4878062;29;20225;-61
2022/07/13 07:16:29;;;;;;;11.43;4.17;;;25.00;99.90;;;;;;4875925;29;20332;-61
2022/07/13 07:18:57;;;;;;;6.83;4.10;;;25.20;99.90;;;;;;4877760;29;20240;-61
2022/07/13 07:21:48;;;;;;;4.87;4.43;;;25.30;99.90;;;;;;4877412;29;20246;-61
2022/07/13 07:24:16;;;;;;;5.87;3.90;;;25.30;99.90;;;;;;4878170;29;20238;-61
2022/07/13 07:26:45;;;;;;;9.37;4.40;;;25.30;99.90;;;;;;4877783;29;20280;-61
2022/07/13 07:29:13;;;;;;;9.33;4.60;;;25.20;99.90;;;;;;4878033;29;20229;-61
2022/07/13 07:31:42;;;;;;;7.00;4.77;;;25.20;99.90;;;;;;4877550;29;20208;-64
2022/07/13 07:34:10;;;;;;;13.40;4.50;;;25.20;99.90;;;;;;4877792;29;20207;-64
2022/07/13 07:36:40;;;;;;;7.20;4.10;;;25.30;99.90;;;;;;4876604;29;20626;-62
2022/07/13 07:39:10;;;;;;;8.03;4.37;;;25.40;99.90;;;;;;4877718;29;20296;-62
2022/07/13 07:41:38;;;;;;;12.93;4.53;;;25.20;99.90;;;;;;4877406;29;20240;-61
2022/07/13 07:44:07;;;;;;;7.87;4.30;;;25.00;99.90;;;;;;4877804;29;20298;-61
2022/07/13 07:46:36;;;;;;;11.67;4.90;;;24.90;99.90;;;;;;4876363;29;20211;-61
2022/07/13 07:49:04;;;;;;;12.07;4.33;;;24.90;99.90;;;;;;4877955;29;20610;-61
2022/07/13 07:51:33;;;;;;;8.13;4.70;;;25.00;99.90;;;;;;4877165;29;20258;-61
2022/07/13 07:54:23;;;;;;;5.20;3.70;;;25.00;99.90;;;;;;4879630;29;20250;-61
2022/07/13 07:56:51;;;;;;;7.93;4.07;;;25.10;99.90;;;;;;4868905;29;20215;-61
2022/07/13 07:59:19;;;;;;;9.40;4.50;;;25.20;99.90;;;;;;4872042;29;20587;-61
2022/07/13 08:01:48;;;;;;;8.00;4.10;;;25.30;99.90;;;;;;4876332;29;20563;-61
2022/07/13 08:04:16;;;;;;;8.43;4.10;;;25.50;99.90;;;;;;4874636;29;20250;-61
2022/07/13 08:06:45;;;;;;;6.33;3.93;;;25.80;99.90;;;;;;4866053;29;20733;-61
2022/07/13 08:09:13;;;;;;;7.13;4.03;;;26.20;99.90;;;;;;4874577;29;20747;-62
2022/07/13 08:11:43;;;;;;;5.47;3.77;;;26.60;99.90;;;;;;4877589;29;20199;-62
2022/07/13 08:14:12;;;;;;;8.10;3.88;;;27.40;99.90;;;;;;4876223;29;20228;-62
2022/07/13 08:16:41;;;;;;;11.50;3.90;;;28.30;99.90;;;;;;4877388;29;20220;-61
2022/07/13 08:19:10;;;;;;;4.60;4.15;;;28.70;99.90;;;;;;4877292;29;20216;-62
2022/07/13 08:21:58;;;;;;;10.93;4.82;;;28.90;99.90;;;;;;4876734;29;20253;-61
2022/07/13 08:24:26;;;;;;;6.78;4.07;;;28.40;99.90;;;;;;4877035;29;20215;-62
2022/07/13 08:26:57;;;;;;;7.88;4.10;;;27.90;99.90;;;;;;4876789;29;20252;-62
2022/07/13 08:29:25;;;;;;;5.70;4.22;;;27.50;99.90;;;;;;4876672;29;20278;-61
2022/07/13 08:31:53;;;;;;;7.47;4.10;;;27.30;99.90;;;;;;4876680;29;20315;-61
2022/07/13 08:39:53;;;;;;;9.00;3.38;;;27.70;99.90;;;;;;4877284;29;20243;-61
2022/07/13 08:42:23;;;;;;;6.90;4.00;;;28.10;99.90;;;;;;4877278;29;20208;-61
2022/07/13 08:44:51;;;;;;;5.38;3.90;;;28.60;99.90;;;;;;4877295;29;20224;-61
2022/07/13 08:47:20;;;;;;;9.18;3.65;;;29.10;99.90;;;;;;4877203;29;20209;-62
2022/07/13 08:49:50;;;;;;;9.52;3.90;;;29.50;99.90;;;;;;4880429;29;20237;-62
2022/07/13 08:52:24;;;;;;;3.55;3.00;;;29.50;99.90;;;;;;4882217;29;20207;-61
2022/07/13 08:54:53;;;;;;;4.07;3.45;;;29.30;99.90;;;;;;4881746;29;20232;-61
2022/07/13 08:57:23;;;;;;;3.58;3.25;;;29.40;99.90;;;;;;4880313;29;20610;-61
2022/07/13 08:59:52;;;;;;;7.90;3.60;;;29.40;99.90;;;;;;4879208;29;20262;-62
2022/07/13 09:02:21;;;;;;;4.18;3.35;;;30.10;99.90;;;;;;4880348;29;20232;-61
2022/07/13 09:04:49;;;;;;;9.50;3.78;;;31.10;99.90;;;;;;4866550;29;20640;-62
2022/07/13 09:07:18;;;;;;;8.13;3.25;;;32.00;99.90;;;;;;4875374;29;20209;-62
2022/07/13 09:09:47;;;;;;;5.78;3.17;;;32.80;99.90;;;;;;4880280;29;20237;-62
2022/07/13 09:12:35;;;;;;;10.95;3.33;;;33.30;99.90;;;;;;4880659;29;20206;-62
2022/07/13 09:15:06;;;;;;;4.40;2.83;;;33.00;99.90;;;;;;4880190;29;20604;-61
2022/07/13 09:17:37;;;;;;;3.45;2.20;;;33.50;99.90;;;;;;4880208;29;20222;-62
2022/07/13 09:20:23;;;;;;;6.45;2.92;;;34.10;99.90;;;;;;4880047;29;20687;-62
2022/07/13 09:23:05;;;;;;;3.80;3.25;;;33.60;99.90;;;;;;4878376;29;20234;-61
2022/07/13 09:25:35;;;;;;;4.07;2.70;;;33.00;99.90;;;;;;4879653;29;20275;-61
2022/07/13 09:28:07;;;;;;;4.55;2.55;;;33.30;99.90;;;;;;4878767;29;20198;-62
2022/07/13 09:30:37;;;;;;;3.67;2.80;;;34.50;99.90;;;;;;4879580;29;20314;-62
2022/07/13 09:33:05;;;;;;;2.75;2.20;;;35.40;99.90;;;;;;4878615;29;20784;-62
2022/07/13 09:35:46;;;;;;;5.07;2.40;;;35.60;99.90;;;;;;4878497;29;20210;-61
2022/07/13 09:38:31;;;;;;;3.72;2.05;;;34.80;99.90;;;;;;4879745;29;20715;-61
2022/07/13 09:41:17;;;;;;;3.80;2.88;;;34.10;99.90;;;;;;4878720;29;20651;-61
2022/07/13 09:46:54;;;;;;;5.22;2.38;;;33.00;99.90;;;;;;4878204;29;20285;-62
2022/07/13 09:49:35;;;;;;;4.22;2.80;;;33.90;99.90;;;;;;4879648;29;20202;-62
2022/07/13 09:52:06;;;;;;;3.85;2.22;;;34.30;99.90;;;;;;4879239;29;20263;-62
2022/07/13 09:54:36;;;;;;;8.25;2.70;;;33.90;99.90;;;;;;4882890;29;20225;-62
2022/07/13 09:57:07;;;;;;;6.25;2.45;;;33.60;99.90;;;;;;4879567;29;20347;-62
2022/07/13 09:59:38;;;;;;;3.30;2.05;;;33.70;99.90;;;;;;4878295;29;20199;-62
2022/07/13 10:02:07;;;;;;;4.15;2.15;;;34.70;99.90;;;;;;4877373;29;20322;-62
2022/07/13 10:04:40;;;;;;;4.35;2.50;;;35.50;99.90;;;;;;4877973;29;20227;-62
2022/07/13 10:07:19;;;;;;;2.63;2.22;;;36.00;99.90;;;;;;4877402;29;20214;-62
2022/07/13 10:09:47;;;;;;;5.47;2.28;;;36.30;99.90;;;;;;4879568;29;20207;-62
2022/07/13 10:12:16;;;;;;;4.70;2.30;;;36.10;99.90;;;;;;4878953;29;20281;-62
2022/07/13 10:14:48;;;;;;;3.03;2.10;;;36.00;99.90;;;;;;4877982;29;20281;-62
2022/07/13 10:17:21;;;;;;;2.50;2.20;;;35.50;99.90;;;;;;4877409;29;20671;-61
2022/07/13 10:20:06;;;;;;;4.22;2.22;;;34.80;99.20;;;;;;4878824;29;20242;-62
2022/07/13 10:22:39;;;;;;;2.50;2.00;;;34.50;99.90;;;;;;4878461;29;20238;-61
2022/07/13 10:25:08;;;;;;;5.10;2.60;;;34.90;99.90;;;;;;4877606;29;20250;-62
2022/07/13 10:27:38;;;;;;;3.10;2.22;;;35.00;99.80;;;;;;4878805;29;20223;-62
2022/07/13 10:30:09;;;;;;;4.68;1.98;;;35.60;99.90;;;;;;4878954;29;20199;-61
2022/07/13 10:32:39;;;;;;;2.53;2.30;;;36.30;99.90;;;;;;4878740;29;20251;-62
2022/07/13 10:35:09;;;;;;;3.83;2.30;;;36.60;99.40;;;;;;4878895;29;20286;-61
2022/07/13 10:38:17;;;;;;;2.20;2.00;;;36.30;99.00;;;;;;4878594;29;20198;-62
2022/07/13 10:40:46;;;;;;;4.78;2.30;;;35.50;99.10;;;;;;4878642;29;20680;-61
2022/07/13 10:43:18;;;;;;;2.65;1.90;;;34.90;99.50;;;;;;4878518;29;20199;-61
2022/07/13 10:45:51;;;;;;;3.45;2.38;;;34.90;99.90;;;;;;4878505;29;20207;-61
2022/07/13 10:48:48;;;;;;;4.15;2.08;;;35.10;99.70;;;;;;4877255;29;20230;-62
2022/07/13 10:51:22;;;;;;;2.92;1.90;;;35.50;99.90;;;;;;4878281;29;20206;-62
2022/07/13 10:54:12;;;;;;;3.30;2.30;;;35.60;99.40;;;;;;4882113;29;20206;-61
2022/07/13 10:57:15;;;;;;;2.20;1.95;;;35.20;98.60;;;;;;4873872;29;20305;-61
2022/07/13 10:59:47;;;;;;;2.28;1.90;;;34.30;99.00;;;;;;4878365;29;20559;-61
2022/07/13 11:02:44;;;;;;;2.38;1.67;;;34.00;99.60;;;;;;4878289;29;20207;-61
2022/07/13 11:05:13;;;;;;;2.38;1.70;;;34.00;99.90;;;;;;4878547;29;20199;-61
2022/07/13 11:07:44;;;;;;;1.70;1.65;;;34.00;99.60;;;;;;4877815;29;20228;-61
2022/07/13 11:10:19;;;;;;;4.45;1.60;;;34.10;98.40;;;;;;4877184;29;20202;-61
2022/07/13 11:13:01;;;;;;;3.42;1.80;;;34.40;99.10;;;;;;4877820;29;20293;-61
2022/07/13 11:15:48;;;;;;;3.42;1.75;;;34.30;98.20;;;;;;4878037;29;20214;-61
2022/07/13 11:18:28;;;;;;;4.07;2.00;;;33.80;99.20;;;;;;4878198;29;20694;-61
2022/07/13 11:20:59;;;;;;;2.08;1.85;;;33.70;99.00;;;;;;4876660;29;20246;-61
2022/07/13 11:26:22;;;;;;;4.63;1.65;;;33.30;98.90;;;;;;4877994;29;20297;-61
2022/07/13 11:28:58;;;;;;;2.17;1.88;;;32.80;99.70;;;;;;4877723;29;20239;-61
2022/07/13 11:31:28;;;;;;;3.08;1.95;;;32.60;99.90;;;;;;4877875;29;20198;-61
2022/07/13 11:33:57;;;;;;;2.35;2.05;;;32.30;99.90;;;;;;4877789;29;20198;-61
2022/07/13 11:36:28;;;;;;;5.65;2.00;;;32.30;99.90;;;;;;4877702;29;20213;-61
2022/07/13 11:39:00;;;;;;;5.88;1.90;;;32.40;99.90;;;;;;4878044;29;20256;-61
2022/07/13 11:41:29;;;;;;;4.18;2.10;;;32.80;99.90;;;;;;4877695;29;20203;-61
2022/07/13 11:43:57;;;;;;;5.78;2.63;;;33.10;99.90;;;;;;4877822;29;20588;-61
2022/07/13 11:46:27;;;;;;;4.30;2.20;;;33.30;99.70;;;;;;4877535;29;20210;-61
2022/07/13 11:49:01;;;;;;;4.15;2.33;;;33.60;99.90;;;;;;4877718;29;20709;-61
2022/07/13 11:51:30;;;;;;;5.28;2.40;;;33.70;99.60;;;;;;4875973;29;20277;-61
2022/07/13 11:54:10;;;;;;;3.15;2.10;;;33.90;99.40;;;;;;4880820;29;20703;-61
2022/07/13 11:56:47;;;;;;;1.95;1.85;;;33.70;99.90;;;;;;4877642;29;20289;-61
2022/07/13 11:59:15;;;;;;;3.65;1.70;;;33.60;99.90;;;;;;4877608;29;20273;-61
2022/07/13 12:01:51;;;;;;;2.10;1.90;;;33.60;99.90;;;;;;4877412;29;20205;-61
2022/07/13 12:04:25;;;;;;;2.10;1.90;;;34.10;99.90;;;;;;4877459;29;20321;-61
2022/07/13 12:07:10;;;;;;;4.40;1.92;;;34.10;99.90;;;;;;4877498;29;20225;-61
2022/07/13 12:09:46;;;;;;;1.90;1.90;;;34.10;99.70;;;;;;4877713;29;20282;-60
2022/07/13 12:12:15;;;;;;;2.47;1.92;;;33.90;99.90;;;;;;4875957;29;20210;-61
2022/07/13 12:14:44;;;;;;;2.05;1.95;;;33.90;99.90;;;;;;4877542;29;20207;-61
2022/07/13 12:17:13;;;;;;;3.50;1.58;;;33.90;99.10;;;;;;4877439;29;20207;-61
2022/07/13 12:19:43;;;;;;;3.53;1.90;;;33.70;98.90;;;;;;4877781;29;20209;-61
2022/07/13 12:22:11;;;;;;;2.20;1.77;;;33.60;99.60;;;;;;4876752;29;20253;-61
2022/07/13 12:24:45;;;;;;;5.35;1.80;;;33.30;98.60;;;;;;4879599;29;20207;-61
2022/07/13 12:27:21;;;;;;;4.93;1.73;;;32.60;98.90;;;;;;4879783;29;20263;-61
2022/07/13 12:29:52;;;;;;;2.63;1.90;;;32.30;99.00;;;;;;4879133;29;20218;-61
2022/07/13 12:32:20;;;;;;;5.75;2.00;;;32.00;99.40;;;;;;4879045;29;20210;-61
2022/07/13 12:34:52;;;;;;;2.05;1.95;;;31.80;99.50;;;;;;4877992;29;20210;-61
2022/07/13 12:37:34;;;;;;;2.00;1.90;;;31.70;99.90;;;;;;4878688;29;20309;-61
2022/07/13 12:40:02;;;;;;;2.78;2.22;;;31.70;99.90;;;;;;4879022;29;20205;-61
2022/07/13 12:42:32;;;;;;;1.92;1.83;;;31.70;99.90;;;;;;4877614;29;20213;-61
2022/07/13 12:45:00;;;;;;;2.05;1.95;;;31.70;99.90;;;;;;4879412;29;20245;-61
2022/07/13 12:47:30;;;;;;;2.92;2.08;;;31.90;99.90;;;;;;4879445;29;20210;-61
2022/07/13 12:50:00;;;;;;;3.53;2.00;;;32.30;99.60;;;;;;4879251;29;20226;-61
2022/07/13 12:52:28;;;;;;;11.82;2.70;;;32.70;99.90;;;;;;4881503;29;20298;-61
2022/07/13 12:54:57;;;;;;;1.98;1.85;;;33.00;99.20;;;;;;4879889;29;20221;-61
2022/07/13 12:57:27;;;;;;;3.45;2.10;;;33.40;99.90;;;;;;4879164;29;20668;-61
2022/07/13 13:00:01;;;;;;;4.07;2.13;;;33.50;99.70;;;;;;4879477;29;20201;-61
2022/07/13 13:02:30;;;;;;;1.90;1.80;;;33.80;99.20;;;;;;4879223;29;20293;-61
2022/07/13 13:05:00;;;;;;;3.30;1.88;;;33.90;98.10;;;;;;4879148;29;20229;-61
2022/07/13 13:07:28;;;;;;;1.70;1.65;;;33.60;98.40;;;;;;4877720;29;20715;-61
2022/07/13 13:09:56;;;;;;;2.15;1.63;;;33.50;97.60;;;;;;4878054;29;20691;-61
2022/07/13 13:12:25;;;;;;;7.45;1.73;;;33.40;98.50;;;;;;4877741;29;20788;-61
2022/07/13 13:14:53;;;;;;;1.80;1.70;;;33.40;97.40;;;;;;4879251;29;20283;-61